Weather at Félix-Houphouët-Boigny International Airport

Public forecast

Using degrees Celsius for public forecast. Weather courtesy of forecast.io.

Current aviation weather report (METAR) for Félix-Houphouët-Boigny International Airport

Retrieved 2022/01/25 11:30 UTC (34 seconds ago):

DIAP 251130Z 03005KT 330V080 8000 FEW011 30/24 Q1011 NOSIG

Aviation forecast (TAF) for Félix-Houphouët-Boigny International Airport

Retrieved 2022/01/25 06:52 UTC (5 hours ago):

TAF DIAP 250542Z 2506/2612 VRB03KT 6000 FEW010 PROB40 TEMPO 2506/2509 3500 BR BKN010 PROB30 TEMPO 2507/2508 0600 FG BECMG 2510/2511 21010KT PROB40 TEMPO 2514/2518 4000 HZ NSC